createdAt,value
2022-11-05T00:00:38.280Z,98107.89
2022-11-05T00:03:29.595Z,98104.58
2022-11-05T00:06:16.061Z,98117.23
2022-11-05T00:09:02.416Z,98106.08
2022-11-05T00:11:48.938Z,98096.42
2022-11-05T00:14:55.059Z,98105.17
2022-11-05T00:17:22.623Z,98106.17
2022-11-05T00:19:50.203Z,98104.77
2022-11-05T00:22:36.509Z,98099.91
2022-11-05T00:25:17.049Z,98109.42
2022-11-05T00:27:54.017Z,98115.89
2022-11-05T00:30:24.812Z,98117.77
2022-11-05T00:32:53.211Z,98119.83
2022-11-05T00:35:22.116Z,98116.44
2022-11-05T00:37:50.624Z,98114.30
2022-11-05T00:40:18.561Z,98118.27
2022-11-05T00:43:05.560Z,98117.74
2022-11-05T00:45:33.242Z,98117.30
2022-11-05T00:48:19.832Z,98119.11
2022-11-05T00:50:47.624Z,98118.95
2022-11-05T00:53:15.342Z,98119.80
2022-11-05T00:55:44.828Z,98124.35
2022-11-05T00:58:15.212Z,98127.48
2022-11-05T01:00:45.162Z,98121.27
2022-11-05T01:03:15.660Z,98118.33
2022-11-05T01:05:49.199Z,98115.64
2022-11-05T01:08:18.939Z,98108.29
2022-11-05T01:10:52.169Z,98112.70
2022-11-05T01:13:22.157Z,98113.17
2022-11-05T01:15:53.110Z,98120.14
2022-11-05T01:18:23.061Z,98119.33
2022-11-05T01:20:51.106Z,98117.94
2022-11-05T01:23:19.272Z,98121.21
2022-11-05T01:25:47.143Z,98124.83
2022-11-05T01:28:14.837Z,98132.58
2022-11-05T01:30:42.538Z,98134.77
2022-11-05T01:33:10.423Z,98135.34
2022-11-05T01:35:39.155Z,98145.69
2022-11-05T01:38:06.748Z,98146.92
2022-11-05T01:40:34.363Z,98144.73
2022-11-05T01:43:01.927Z,98141.02
2022-11-05T01:45:29.522Z,98142.95
2022-11-05T01:48:08.121Z,98144.65
2022-11-05T01:51:03.784Z,98147.35
2022-11-05T01:53:43.701Z,98143.48
2022-11-05T01:56:40.080Z,98143.81
2022-11-05T01:59:30.435Z,98129.62
2022-11-05T02:01:59.254Z,98126.19
2022-11-05T02:04:32.056Z,98133.11
2022-11-05T02:06:59.704Z,98141.02
2022-11-05T02:09:34.945Z,98133.15
2022-11-05T02:12:02.959Z,98141.02
2022-11-05T02:14:30.553Z,98143.77
2022-11-05T02:17:03.940Z,98141.06
2022-11-05T02:19:49.664Z,98146.70
2022-11-05T02:22:45.570Z,98146.74
2022-11-05T02:25:34.580Z,98150.75
2022-11-05T02:28:41.683Z,98151.80
2022-11-05T02:31:11.741Z,98160.83
2022-11-05T02:34:00.723Z,98166.11
2022-11-05T02:36:49.649Z,98168.09
2022-11-05T02:39:39.193Z,98170.70
2022-11-05T02:42:13.142Z,98163.98
2022-11-05T02:44:51.868Z,98164.55
2022-11-05T02:47:29.614Z,98166.08
2022-11-05T02:50:10.675Z,98164.60
2022-11-05T02:53:00.096Z,98169.55
2022-11-05T02:55:44.017Z,98175.24
2022-11-05T02:58:11.652Z,98171.23
2022-11-05T03:00:48.240Z,98158.41
2022-11-05T03:03:21.413Z,98161.01
2022-11-05T03:06:00.052Z,98162.02
2022-11-05T03:08:50.705Z,98165.52
2022-11-05T03:11:20.342Z,98173.51
2022-11-05T03:14:06.674Z,98179.30
2022-11-05T03:16:40.840Z,98186.02
2022-11-05T03:19:20.176Z,98189.89
2022-11-05T03:21:53.135Z,98199.83
2022-11-05T03:24:26.645Z,98201.33
2022-11-05T03:27:00.981Z,98216.28
2022-11-05T03:29:33.503Z,98235.74
2022-11-05T03:32:03.223Z,98233.91
2022-11-05T03:34:38.087Z,98228.16
2022-11-05T03:37:06.726Z,98222.33
2022-11-05T03:39:41.158Z,98213.87
2022-11-05T03:42:12.028Z,98221.16
2022-11-05T03:44:44.531Z,98228.19
2022-11-05T03:47:16.479Z,98228.90
2022-11-05T03:49:54.051Z,98227.26
2022-11-05T03:52:24.594Z,98231.95
2022-11-05T03:54:52.244Z,98241.45
2022-11-05T03:57:27.705Z,98255.02
2022-11-05T03:59:55.251Z,98257.63
2022-11-05T04:02:25.575Z,98253.98
2022-11-05T04:04:54.194Z,98250.94
2022-11-05T04:07:40.707Z,98248.34
2022-11-05T04:10:28.231Z,98254.60
2022-11-05T04:13:14.545Z,98265.63
2022-11-05T04:16:01.167Z,98280.27
2022-11-05T04:18:28.726Z,98288.02
2022-11-05T04:21:14.980Z,98280.91
2022-11-05T04:24:01.560Z,98269.59
2022-11-05T04:26:29.140Z,98277.95
2022-11-05T04:29:15.366Z,98280.45
2022-11-05T04:31:43.023Z,98282.82
2022-11-05T04:34:10.631Z,98282.03
2022-11-05T04:36:38.200Z,98286.12
2022-11-05T04:39:05.775Z,98287.92
2022-11-05T04:41:33.370Z,98285.57
2022-11-05T04:44:00.955Z,98287.81
2022-11-05T04:46:28.575Z,98284.23
2022-11-05T04:48:56.173Z,98302.44
2022-11-05T04:51:23.728Z,98306.60
2022-11-05T04:53:51.311Z,98297.47
2022-11-05T04:56:20.336Z,98294.73
2022-11-05T04:58:48.258Z,98297.75
2022-11-05T05:01:18.376Z,98307.59
2022-11-05T05:03:53.574Z,98306.84
2022-11-05T05:06:21.692Z,98307.94
2022-11-05T05:08:51.010Z,98305.18
2022-11-05T05:11:20.791Z,98302.23
2022-11-05T05:13:49.314Z,98305.95
2022-11-05T05:16:22.868Z,98310.47
2022-11-05T05:18:51.397Z,98315.87
2022-11-05T05:21:39.487Z,98317.04
2022-11-05T05:24:15.010Z,98317.76
2022-11-05T05:26:48.268Z,98322.67
2022-11-05T05:29:16.887Z,98317.52
2022-11-05T05:31:45.016Z,98322.19
2022-11-05T05:34:14.307Z,98329.27
2022-11-05T05:36:41.910Z,98333.20
2022-11-05T05:39:11.136Z,98343.14
2022-11-05T05:41:38.943Z,98347.74
2022-11-05T05:44:06.660Z,98351.68
2022-11-05T05:46:34.324Z,98355.19
2022-11-05T05:49:01.973Z,98356.21
2022-11-05T05:51:29.527Z,98349.48
2022-11-05T05:53:57.179Z,98354.47
2022-11-05T05:56:24.796Z,98355.38
2022-11-05T05:58:52.403Z,98360.19
2022-11-05T06:01:20.901Z,98359.23
2022-11-05T06:03:49.003Z,98357.45
2022-11-05T06:06:21.258Z,98360.77
2022-11-05T06:08:49.071Z,98370.02
2022-11-05T06:11:16.702Z,98379.18
2022-11-05T06:13:44.400Z,98385.06
2022-11-05T06:16:12.326Z,98392.67
2022-11-05T06:18:40.010Z,98399.11
2022-11-05T06:21:10.274Z,98395.45
2022-11-05T06:23:39.357Z,98392.65
2022-11-05T06:26:09.445Z,98386.52
2022-11-05T06:28:37.031Z,98390.73
2022-11-05T06:31:04.939Z,98396.02
2022-11-05T06:33:32.494Z,98393.13
2022-11-05T06:36:01.599Z,98396.63
2022-11-05T06:38:32.640Z,98403.41
2022-11-05T06:41:03.321Z,98404.84
2022-11-05T06:43:33.484Z,98405.73
2022-11-05T06:46:02.290Z,98413.35
2022-11-05T06:48:30.052Z,98419.09
2022-11-05T06:50:57.705Z,98429.18
2022-11-05T06:53:25.286Z,98433.55
2022-11-05T06:55:52.874Z,98435.12
2022-11-05T06:58:20.469Z,98438.88
2022-11-05T07:00:48.103Z,98441.20
2022-11-05T07:03:15.943Z,98442.14
2022-11-05T07:05:46.400Z,98443.41
2022-11-05T07:08:14.150Z,98447.61
2022-11-05T07:10:41.983Z,98450.56
2022-11-05T07:13:09.829Z,98452.60
2022-11-05T07:15:37.791Z,98456.05
2022-11-05T07:18:07.359Z,98463.76
2022-11-05T07:20:35.417Z,98471.23
2022-11-05T07:23:09.993Z,98480.58
2022-11-05T07:25:39.739Z,98493.27
2022-11-05T07:28:08.423Z,98501.00
2022-11-05T07:30:36.970Z,98510.60
2022-11-05T07:33:04.582Z,98520.64
2022-11-05T07:35:32.222Z,98524.87
2022-11-05T07:37:59.864Z,98522.71
2022-11-05T07:40:28.749Z,98527.72
2022-11-05T07:42:58.399Z,98529.16
2022-11-05T07:45:27.371Z,98528.45
2022-11-05T07:47:56.218Z,98537.98
2022-11-05T07:50:26.172Z,98546.67
2022-11-05T07:52:53.833Z,98546.08
2022-11-05T07:55:21.471Z,98544.19
2022-11-05T07:57:50.799Z,98541.33
2022-11-05T08:00:22.871Z,98545.15
2022-11-05T08:03:07.799Z,98547.30
2022-11-05T08:05:38.558Z,98544.36
2022-11-05T08:08:07.562Z,98534.42
2022-11-05T08:10:36.350Z,98535.48
2022-11-05T08:13:04.847Z,98535.86
2022-11-05T08:15:32.835Z,98534.42
2022-11-05T08:18:03.143Z,98541.35
2022-11-05T08:20:31.253Z,98547.06
2022-11-05T08:22:58.975Z,98556.74
2022-11-05T08:25:27.263Z,98563.35
2022-11-05T08:28:02.010Z,98564.94
2022-11-05T08:30:30.134Z,98568.78
2022-11-05T08:33:03.782Z,98576.27
2022-11-05T08:35:31.441Z,98568.67
2022-11-05T08:38:01.602Z,98568.59
2022-11-05T08:40:31.480Z,98565.04
2022-11-05T08:43:00.270Z,98566.97
2022-11-05T08:45:28.338Z,98585.11
2022-11-05T08:48:00.554Z,98595.56
2022-11-05T08:50:28.517Z,98603.34
2022-11-05T08:52:56.098Z,98611.16
2022-11-05T08:55:23.985Z,98611.98
2022-11-05T08:57:59.386Z,98608.05
2022-11-05T09:00:29.123Z,98611.13
2022-11-05T09:03:00.067Z,98621.48
2022-11-05T09:05:28.519Z,98626.92
2022-11-05T09:08:00.880Z,98634.53
2022-11-05T09:10:32.208Z,98630.68
2022-11-05T09:12:59.763Z,98639.02
2022-11-05T09:15:28.274Z,98642.43
2022-11-05T09:17:56.041Z,98643.11
2022-11-05T09:20:24.159Z,98650.73
2022-11-05T09:22:53.999Z,98662.59
2022-11-05T09:25:21.641Z,98670.73
2022-11-05T09:27:49.462Z,98667.98
2022-11-05T09:30:17.342Z,98664.02
2022-11-05T09:32:44.958Z,98668.00
2022-11-05T09:35:12.538Z,98665.61
2022-11-05T09:37:40.207Z,98664.22
2022-11-05T09:40:08.044Z,98674.57
2022-11-05T09:42:39.753Z,98677.39
2022-11-05T09:45:16.395Z,98680.18
2022-11-05T09:47:47.797Z,98682.29
2022-11-05T09:50:19.661Z,98677.95
2022-11-05T09:52:47.236Z,98677.17
2022-11-05T09:55:26.759Z,98678.71
2022-11-05T09:58:00.779Z,98680.63
2022-11-05T10:00:30.192Z,98681.24
2022-11-05T10:03:01.120Z,98680.09
2022-11-05T10:05:29.045Z,98678.34
2022-11-05T10:08:00.780Z,98680.73
2022-11-05T10:10:45.399Z,98682.35
2022-11-05T10:13:41.826Z,98693.30
2022-11-05T10:16:37.863Z,98696.30
2022-11-05T10:19:16.372Z,98698.29
2022-11-05T10:22:05.384Z,98696.50
2022-11-05T10:24:31.729Z,98704.98
2022-11-05T10:26:59.337Z,98710.14
2022-11-05T10:29:29.761Z,98711.98
2022-11-05T10:31:58.723Z,98711.15
2022-11-05T10:34:33.031Z,98713.37
2022-11-05T10:37:00.969Z,98722.46
2022-11-05T10:39:30.415Z,98728.05
2022-11-05T10:42:13.418Z,98723.73
2022-11-05T10:44:40.957Z,98725.30
2022-11-05T10:47:35.381Z,98731.44
2022-11-05T10:50:09.570Z,98727.98
2022-11-05T10:52:40.449Z,98736.92
2022-11-05T10:55:17.158Z,98738.88
2022-11-05T10:57:47.775Z,98743.14
2022-11-05T11:00:18.204Z,98744.98
2022-11-05T11:02:48.367Z,98746.54
2022-11-05T11:05:33.739Z,98759.92
2022-11-05T11:08:03.884Z,98768.86
2022-11-05T11:10:37.195Z,98767.61
2022-11-05T11:13:05.447Z,98759.15
2022-11-05T11:15:33.010Z,98755.44
2022-11-05T11:18:33.363Z,98759.83
2022-11-05T11:21:26.208Z,98755.09
2022-11-05T11:23:58.276Z,98758.98
2022-11-05T11:26:29.282Z,98759.98
2022-11-05T11:29:05.704Z,98761.08
2022-11-05T11:31:37.812Z,98754.77
2022-11-05T11:34:07.864Z,98755.08
2022-11-05T11:36:39.621Z,98758.48
2022-11-05T11:39:07.627Z,98766.42
2022-11-05T11:41:38.760Z,98765.05
2022-11-05T11:44:16.819Z,98766.25
2022-11-05T11:46:48.788Z,98771.48
2022-11-05T11:49:41.319Z,98778.30
2022-11-05T11:52:34.341Z,98781.64
2022-11-05T11:55:10.779Z,98779.88
2022-11-05T11:57:50.330Z,98777.95
2022-11-05T12:00:19.489Z,98778.48
2022-11-05T12:03:04.522Z,98779.30
2022-11-05T12:05:40.948Z,98778.08
2022-11-05T12:08:34.631Z,98778.77
2022-11-05T12:11:08.435Z,98780.25
2022-11-05T12:13:54.868Z,98782.27
2022-11-05T12:16:49.696Z,98780.95
2022-11-05T12:19:43.128Z,98782.76
2022-11-05T12:22:36.611Z,98788.20
2022-11-05T12:25:10.837Z,98792.36
2022-11-05T12:28:00.902Z,98791.29
2022-11-05T12:30:36.981Z,98794.85
2022-11-05T12:33:26.178Z,98796.58
2022-11-05T12:36:13.324Z,98800.26
2022-11-05T12:38:47.146Z,98797.71
2022-11-05T12:41:32.390Z,98798.20
2022-11-05T12:44:40.997Z,98801.09
2022-11-05T12:47:36.751Z,98805.04
2022-11-05T12:50:47.512Z,98809.69
2022-11-05T12:53:42.955Z,98812.16
2022-11-05T12:56:19.263Z,98817.57
2022-11-05T12:58:57.756Z,98819.71
2022-11-05T13:01:37.163Z,98821.02
2022-11-05T13:04:13.785Z,98825.35
2022-11-05T13:06:44.243Z,98823.52
2022-11-05T13:09:20.301Z,98819.48
2022-11-05T13:12:05.072Z,98829.31
2022-11-05T13:14:57.384Z,98840.11
2022-11-05T13:17:29.415Z,98844.86
2022-11-05T13:20:03.726Z,98843.91
2022-11-05T13:22:46.647Z,98851.47
2022-11-05T13:25:25.091Z,98861.21
2022-11-05T13:28:24.050Z,98867.98
2022-11-05T13:30:54.244Z,98872.27
2022-11-05T13:33:30.112Z,98879.55
2022-11-05T13:36:32.968Z,98884.56
2022-11-05T13:39:26.681Z,98893.73
2022-11-05T13:42:01.268Z,98893.90
2022-11-05T13:44:55.954Z,98904.25
2022-11-05T13:47:51.243Z,98898.73
2022-11-05T13:50:48.665Z,98900.96
2022-11-05T13:53:35.854Z,98910.13
2022-11-05T13:56:15.705Z,98912.02
2022-11-05T13:58:51.897Z,98915.15
2022-11-05T14:01:25.779Z,98917.52
2022-11-05T14:03:55.614Z,98916.31
2022-11-05T14:06:35.268Z,98919.06
2022-11-05T14:09:08.430Z,98921.79
2022-11-05T14:11:40.372Z,98922.95
2022-11-05T14:14:14.733Z,98927.90
2022-11-05T14:17:07.164Z,98931.74
2022-11-05T14:20:02.834Z,98940.53
2022-11-05T14:22:33.590Z,98943.26
2022-11-05T14:25:22.930Z,98944.44
2022-11-05T14:27:53.703Z,98946.45
2022-11-05T14:30:41.202Z,98950.40
2022-11-05T14:33:30.350Z,98961.02
2022-11-05T14:36:40.204Z,98966.58
2022-11-05T14:39:30.606Z,98965.91
2022-11-05T14:42:11.862Z,98968.83
2022-11-05T14:45:13.777Z,98966.48
2022-11-05T14:47:49.459Z,98968.29
2022-11-05T14:50:25.720Z,98966.54
2022-11-05T14:52:55.804Z,98970.18
2022-11-05T14:55:38.014Z,98970.44
2022-11-05T14:58:25.707Z,98978.23
2022-11-05T15:00:53.976Z,98976.42
2022-11-05T15:03:41.131Z,98977.07
2022-11-05T15:06:33.249Z,98984.25
2022-11-05T15:09:05.542Z,98992.53
2022-11-05T15:11:39.170Z,98997.95
2022-11-05T15:14:19.607Z,99001.17
2022-11-05T15:16:53.652Z,99005.64
2022-11-05T15:19:26.253Z,99007.62
2022-11-05T15:21:56.514Z,99009.17
2022-11-05T15:24:25.472Z,99015.81
2022-11-05T15:27:03.892Z,99016.91
2022-11-05T15:29:32.868Z,99018.07
2022-11-05T15:32:00.579Z,99025.13
2022-11-05T15:34:35.503Z,99025.09
2022-11-05T15:37:21.871Z,99025.33
2022-11-05T15:39:51.231Z,99027.22
2022-11-05T15:42:24.603Z,99027.67
2022-11-05T15:44:56.395Z,99030.00
2022-11-05T15:47:26.232Z,99029.61
2022-11-05T15:50:01.296Z,99037.95
2022-11-05T15:52:36.611Z,99038.73
2022-11-05T15:55:13.581Z,99046.73
2022-11-05T15:57:51.321Z,99047.14
2022-11-05T16:00:26.078Z,99053.60
2022-11-05T16:03:00.504Z,99050.53
2022-11-05T16:05:33.806Z,99050.50
2022-11-05T16:08:04.345Z,99057.44
2022-11-05T16:10:35.210Z,99055.27
2022-11-05T16:13:35.005Z,99058.48
2022-11-05T16:16:21.186Z,99063.74
2022-11-05T16:18:48.880Z,99064.97
2022-11-05T16:21:19.265Z,99062.67
2022-11-05T16:23:49.903Z,99064.64
2022-11-05T16:27:02.930Z,99067.11
2022-11-05T16:29:35.916Z,99071.78
2022-11-05T16:32:31.893Z,99077.20
2022-11-05T16:35:05.061Z,99078.55
2022-11-05T16:37:39.697Z,99081.79
2022-11-05T16:40:25.747Z,99088.67
2022-11-05T16:42:54.195Z,99093.55
2022-11-05T16:45:24.645Z,99096.99
2022-11-05T16:47:52.411Z,99100.48
2022-11-05T16:50:31.300Z,99099.08
2022-11-05T16:52:59.290Z,99100.69
2022-11-05T16:55:26.877Z,99104.25
2022-11-05T16:57:55.490Z,99103.34
2022-11-05T17:00:24.239Z,99106.84
2022-11-05T17:02:52.481Z,99109.50
2022-11-05T17:05:31.069Z,99117.00
2022-11-05T17:08:00.556Z,99118.80
2022-11-05T17:10:28.155Z,99122.79
2022-11-05T17:12:55.811Z,99127.14
2022-11-05T17:15:26.534Z,99130.49
2022-11-05T17:17:55.108Z,99136.80
2022-11-05T17:20:26.826Z,99139.35
2022-11-05T17:22:55.639Z,99142.76
2022-11-05T17:25:23.869Z,99146.23
2022-11-05T17:27:51.984Z,99149.23
2022-11-05T17:30:19.658Z,99153.70
2022-11-05T17:32:47.407Z,99152.30
2022-11-05T17:35:15.735Z,99155.99
2022-11-05T17:37:43.376Z,99160.56
2022-11-05T17:40:19.007Z,99155.85
2022-11-05T17:42:46.704Z,99155.31
2022-11-05T17:45:14.963Z,99162.16
2022-11-05T17:47:43.008Z,99163.52
2022-11-05T17:50:13.043Z,99160.52
2022-11-05T17:52:40.691Z,99167.73
2022-11-05T17:55:16.615Z,99165.23
2022-11-05T17:57:49.404Z,99164.61
2022-11-05T18:00:19.500Z,99170.77
2022-11-05T18:02:48.428Z,99172.89
2022-11-05T18:05:20.193Z,99172.52
2022-11-05T18:07:48.735Z,99175.27
2022-11-05T18:10:16.803Z,99178.45
2022-11-05T18:12:45.072Z,99180.15
2022-11-05T18:15:13.774Z,99185.73
2022-11-05T18:17:42.019Z,99183.61
2022-11-05T18:20:17.428Z,99184.02
2022-11-05T18:22:49.496Z,99183.31
2022-11-05T18:25:17.533Z,99182.91
2022-11-05T18:27:45.127Z,99185.32
2022-11-05T18:30:15.439Z,99186.13
2022-11-05T18:32:44.748Z,99189.02
2022-11-05T18:35:13.562Z,99197.23
2022-11-05T18:37:41.227Z,99198.27
2022-11-05T18:40:09.878Z,99195.34
2022-11-05T18:42:37.495Z,99198.58
2022-11-05T18:45:06.684Z,99194.53
2022-11-05T18:47:34.368Z,99190.80
2022-11-05T18:50:02.131Z,99197.11
2022-11-05T18:52:31.810Z,99196.95
2022-11-05T18:54:59.925Z,99194.02
2022-11-05T18:57:28.271Z,99195.71
2022-11-05T18:59:55.874Z,99194.81
2022-11-05T19:02:23.560Z,99195.58
2022-11-05T19:05:21.956Z,99195.66
2022-11-05T19:07:39.140Z,99197.76
2022-11-05T19:10:07.758Z,99193.68
2022-11-05T19:12:35.357Z,99197.70
2022-11-05T19:15:03.840Z,99198.81
2022-11-05T19:17:33.013Z,99199.51
2022-11-05T19:20:01.151Z,99199.59
2022-11-05T19:22:28.852Z,99204.95
2022-11-05T19:24:56.506Z,99205.69
2022-11-05T19:27:24.148Z,99208.44
2022-11-05T19:29:52.171Z,99213.63
2022-11-05T19:32:21.173Z,99220.91
2022-11-05T19:34:48.816Z,99228.48
2022-11-05T19:37:16.700Z,99231.77
2022-11-05T19:39:44.347Z,99236.10
2022-11-05T19:42:12.524Z,99240.55
2022-11-05T19:44:40.858Z,99240.44
2022-11-05T19:47:08.475Z,99243.33
2022-11-05T19:49:36.039Z,99246.37
2022-11-05T19:52:03.744Z,99248.20
2022-11-05T19:54:31.378Z,99251.31
2022-11-05T19:56:58.969Z,99251.95
2022-11-05T19:59:26.784Z,99257.69
2022-11-05T20:01:54.518Z,99261.98
2022-11-05T20:04:22.537Z,99262.48
2022-11-05T20:06:50.099Z,99265.75
2022-11-05T20:09:22.484Z,99266.17
2022-11-05T20:11:53.727Z,99272.02
2022-11-05T20:14:21.434Z,99268.50
2022-11-05T20:16:49.464Z,99271.55
2022-11-05T20:19:19.758Z,99272.55
2022-11-05T20:21:48.016Z,99279.55
2022-11-05T20:24:23.549Z,99283.48
2022-11-05T20:26:56.229Z,99284.52
2022-11-05T20:29:29.084Z,99284.86
2022-11-05T20:32:02.233Z,99282.90
2022-11-05T20:34:30.850Z,99285.62
2022-11-05T20:36:58.443Z,99292.42
2022-11-05T20:39:26.133Z,99289.02
2022-11-05T20:41:54.003Z,99284.25
2022-11-05T20:44:21.680Z,99287.98
2022-11-05T20:46:49.278Z,99291.09
2022-11-05T20:49:21.277Z,99288.55
2022-11-05T20:51:51.769Z,99290.96
2022-11-05T20:54:19.357Z,99289.30
2022-11-05T20:56:46.947Z,99291.94
2022-11-05T20:59:14.538Z,99289.17
2022-11-05T21:01:42.271Z,99291.68
2022-11-05T21:04:10.039Z,99292.62
2022-11-05T21:06:37.619Z,99288.55
2022-11-05T21:09:06.015Z,99291.52
2022-11-05T21:11:53.775Z,99292.89
2022-11-05T21:14:21.368Z,99299.48
2022-11-05T21:16:48.921Z,99300.42
2022-11-05T21:19:16.502Z,99304.20
2022-11-05T21:21:44.116Z,99308.15
2022-11-05T21:24:11.716Z,99304.62
2022-11-05T21:26:39.555Z,99303.91
2022-11-05T21:29:07.812Z,99306.52
2022-11-05T21:31:37.335Z,99309.11
2022-11-05T21:34:05.022Z,99313.84
2022-11-05T21:36:32.694Z,99308.74
2022-11-05T21:39:00.558Z,99306.56
2022-11-05T21:41:28.286Z,99300.98
2022-11-05T21:43:55.867Z,99306.86
2022-11-05T21:46:23.508Z,99312.42
2022-11-05T21:48:51.115Z,99311.75
2022-11-05T21:51:37.646Z,99312.06
2022-11-05T21:54:23.991Z,99312.98
2022-11-05T21:57:11.040Z,99313.73
2022-11-05T21:59:47.798Z,99316.29
2022-11-05T22:02:20.568Z,99317.02
2022-11-05T22:04:53.662Z,99323.63
2022-11-05T22:07:24.049Z,99324.09
2022-11-05T22:09:52.090Z,99324.20
2022-11-05T22:12:20.045Z,99325.84
2022-11-05T22:14:47.628Z,99327.67
2022-11-05T22:17:15.556Z,99327.10
2022-11-05T22:19:43.227Z,99329.92
2022-11-05T22:22:11.417Z,99328.48
2022-11-05T22:24:39.618Z,99329.79
2022-11-05T22:27:15.818Z,99333.90
2022-11-05T22:29:43.522Z,99341.42
2022-11-05T22:32:11.188Z,99343.25
2022-11-05T22:34:39.136Z,99344.37
2022-11-05T22:37:07.216Z,99342.48
2022-11-05T22:39:34.777Z,99342.14
2022-11-05T22:42:08.085Z,99338.38
2022-11-05T22:44:36.916Z,99338.66
2022-11-05T22:47:05.510Z,99344.34
2022-11-05T22:49:33.689Z,99345.02
2022-11-05T22:52:01.270Z,99345.39
2022-11-05T22:54:29.054Z,99341.17
2022-11-05T22:56:56.598Z,99337.89
2022-11-05T22:59:24.236Z,99331.68
2022-11-05T23:01:51.996Z,99331.42
2022-11-05T23:04:19.812Z,99332.80
2022-11-05T23:07:06.269Z,99336.05
2022-11-05T23:09:53.725Z,99341.74
2022-11-05T23:12:28.352Z,99351.39
2022-11-05T23:14:57.605Z,99353.18
2022-11-05T23:17:44.425Z,99357.67
2022-11-05T23:20:15.351Z,99361.83
2022-11-05T23:23:01.569Z,99357.59
2022-11-05T23:25:29.176Z,99354.05
2022-11-05T23:27:57.121Z,99358.87
2022-11-05T23:30:26.608Z,99359.34
2022-11-05T23:32:55.492Z,99357.30
2022-11-05T23:35:43.195Z,99356.42
2022-11-05T23:38:29.648Z,99354.31
2022-11-05T23:41:20.892Z,99349.80
2022-11-05T23:44:07.544Z,99354.68
2022-11-05T23:46:54.420Z,99355.59
2022-11-05T23:49:22.407Z,99357.63
2022-11-05T23:51:49.968Z,99356.77
2022-11-05T23:54:17.557Z,99359.40
2022-11-05T23:56:45.837Z,99357.77
2022-11-05T23:59:13.408Z,99354.84
